Time;durP1;ratioP1;P1;durP2;ratioP2;P2;SDS_P1;SDS_P2;PMS_P1;PMS_P2;Temp;Humidity;BMP_temperature;BMP_pressure;BME280_temperature;BME280_humidity;BME280_pressure;Samples;Min_cycle;Max_cycle;Signal;HPM_P1;HPM_P2
2023/10/30 06:01:23;;;;;;;;;;;;;;;;;;5557920;23;19926;-47
2023/10/30 06:03:49;;;;;;;;;;;;;;;;;;4952627;29;19917;-49
2023/10/30 06:06:15;;;;;;;;;;;;;;;;;;4952393;29;19984;-48
2023/10/30 06:08:40;;;;;;;;;;;;;;;;;;4952221;29;19917;-48
2023/10/30 06:11:06;;;;;;;;;;;;;;;;;;4952547;29;20306;-50
2023/10/30 06:13:32;;;;;;;;;;;;;;;;;;4951879;29;20307;-48
2023/10/30 06:15:58;;;;;;;;;;;;;;;;;;4952227;29;19938;-45
2023/10/30 06:18:24;;;;;;;;;;;;;;;;;;4951806;29;19922;-46
2023/10/30 06:20:50;;;;;;;;;;;;;;;;;;4952406;29;19910;-49
2023/10/30 06:23:16;;;;;;;;;;;;;;;;;;4951954;29;19907;-49
2023/10/30 06:25:42;;;;;;;;;;;;;;;;;;4951970;29;19914;-49
2023/10/30 06:28:10;;;;;;;;;;;;;;;;;;4951826;29;19913;-47
2023/10/30 06:30:36;;;;;;;;;;;;;;;;;;4951978;29;20001;-49
2023/10/30 06:33:02;;;;;;;;;;;;;;;;;;4951786;29;19962;-48
2023/10/30 06:35:28;;;;;;;;;;;;;;;;;;4952127;29;20290;-46
2023/10/30 06:37:53;;;;;;;;;;;;;;;;;;4950330;29;20216;-47
2023/10/30 06:40:19;;;;;;;;;;;;;;;;;;4951811;29;19914;-50
2023/10/30 06:42:45;;;;;;;;;;;;;;;;;;4965279;28;19910;-45
2023/10/30 06:45:11;;;;;;;;;;;;;;;;;;4956919;28;20013;-49
2023/10/30 06:47:37;;;;;;;;;;;;;;;;;;4960508;28;19984;-45
2023/10/30 06:50:03;;;;;;;;;;;;;;;;;;4952668;29;19997;-50
2023/10/30 06:52:29;;;;;;;;;;;;;;;;;;4952322;29;20383;-48
2023/10/30 06:54:55;;;;;;;;;;;;;;;;;;4952855;29;19970;-46
2023/10/30 06:57:21;;;;;;;;;;;;;;;;;;4952546;28;19950;-47
2023/10/30 06:59:49;;;;;;;;;;;;;;;;;;4962815;28;19965;-48
2023/10/30 07:02:15;;;;;;;;;;;;;;;;;;4954388;28;19923;-55
2023/10/30 07:04:41;;;;;;;;;;;;;;;;;;4951967;29;20009;-50
2023/10/30 07:07:07;;;;;;;;;;;;;;;;;;4952182;29;20248;-46
2023/10/30 07:09:33;;;;;;;;;;;;;;;;;;4952317;29;19911;-49
2023/10/30 07:11:58;;;;;;;;;;;;;;;;;;4951883;29;20363;-47
2023/10/30 07:14:24;;;;;;;;;;;;;;;;;;4951527;28;19914;-45
2023/10/30 07:16:50;;;;;;;;;;;;;;;;;;4950387;28;20391;-47
2023/10/30 07:19:16;;;;;;;;;;;;;;;;;;4949506;28;19915;-49
2023/10/30 07:21:42;;;;;;;;;;;;;;;;;;4949735;28;20537;-50
2023/10/30 07:24:08;;;;;;;;;;;;;;;;;;4946730;28;20497;-49
2023/10/30 07:26:34;;;;;;;;;;;;;;;;;;4940741;29;19915;-47
2023/10/30 07:29:00;;;;;;;;;;;;;;;;;;4950533;28;19921;-46
2023/10/30 07:31:26;;;;;;;;;;;;;;;;;;4946284;28;19956;-49
2023/10/30 07:33:52;;;;;;;;;;;;;;;;;;4950393;28;19915;-49
2023/10/30 07:36:18;;;;;;;;;;;;;;;;;;4949982;28;19919;-48
2023/10/30 07:38:43;;;;;;;;;;;;;;;;;;4950648;28;19942;-48
2023/10/30 07:41:09;;;;;;;;;;;;;;;;;;4947574;28;19922;-48
2023/10/30 07:43:35;;;;;;;;;;;;;;;;;;4950455;29;19914;-49
2023/10/30 07:46:01;;;;;;;;;;;;;;;;;;4950216;29;19921;-49
2023/10/30 07:48:27;;;;;;;;;;;;;;;;;;4950252;29;19918;-47
2023/10/30 07:50:53;;;;;;;;;;;;;;;;;;4951127;28;20001;-50
2023/10/30 07:53:19;;;;;;;;;;;;;;;;;;4951156;29;20347;-50
2023/10/30 07:55:45;;;;;;;;;;;;;;;;;;4944886;28;19914;-47
2023/10/30 07:58:12;;;;;;;;;;;;;;;;;;4932369;29;20283;-47
2023/10/30 08:00:38;;;;;;;;;;;;;;;;;;4947449;28;19965;-50
2023/10/30 08:03:05;;;;;;;;;;;;;;;;;;4950946;29;19915;-46
2023/10/30 08:05:32;;;;;;;;;;;;;;;;;;4951755;28;20005;-50
2023/10/30 08:07:57;;;;;;;;;;;;;;;;;;4949672;28;20418;-47
2023/10/30 08:10:23;;;;;;;;;;;;;;;;;;4949739;29;19911;-47
2023/10/30 08:12:49;;;;;;;;;;;;;;;;;;4948846;28;19957;-46
2023/10/30 08:15:15;;;;;;;;;;;;;;;;;;4953552;29;20287;-46
2023/10/30 08:17:41;;;;;;;;;;;;;;;;;;4953127;29;19914;-47
2023/10/30 08:20:09;;;;;;;;;;;;;;;;;;4967802;28;19939;-46
2023/10/30 08:22:35;;;;;;;;;;;;;;;;;;4954408;29;19911;-45
2023/10/30 08:25:02;;;;;;;;;;;;;;;;;;4955202;29;19964;-50
2023/10/30 08:27:28;;;;;;;;;;;;;;;;;;4968397;28;19937;-49
2023/10/30 08:29:54;;;;;;;;;;;;;;;;;;4954012;29;19915;-48
2023/10/30 08:32:20;;;;;;;;;;;;;;;;;;4952133;29;19914;-50
2023/10/30 08:34:46;;;;;;;;;;;;;;;;;;4954276;29;20375;-49
2023/10/30 08:37:11;;;;;;;;;;;;;;;;;;4968921;28;19914;-50
2023/10/30 08:39:37;;;;;;;;;;;;;;;;;;4954238;29;19921;-46
2023/10/30 08:42:03;;;;;;;;;;;;;;;;;;4953515;29;19917;-48
2023/10/30 08:44:31;;;;;;;;;;;;;;;;;;4950579;28;20287;-48
2023/10/30 08:46:57;;;;;;;;;;;;;;;;;;4951388;29;19926;-48
2023/10/30 08:49:23;;;;;;;;;;;;;;;;;;4950955;29;20284;-48
2023/10/30 08:51:49;;;;;;;;;;;;;;;;;;4951458;29;19910;-47
2023/10/30 08:54:15;;;;;;;;;;;;;;;;;;4952442;29;19958;-50
2023/10/30 08:56:42;;;;;;;;;;;;;;;;;;4952316;29;19910;-47
2023/10/30 08:59:08;;;;;;;;;;;;;;;;;;4966145;28;19998;-48
2023/10/30 09:01:34;;;;;;;;;;;;;;;;;;4951531;29;20434;-48
2023/10/30 09:04:00;;;;;;;;;;;;;;;;;;4952791;29;19918;-48
2023/10/30 09:06:27;;;;;;;;;;;;;;;;;;4951451;29;19958;-46
2023/10/30 09:08:53;;;;;;;;;;;;;;;;;;4951216;29;19911;-49
2023/10/30 09:11:19;;;;;;;;;;;;;;;;;;4951285;29;19978;-46
2023/10/30 09:13:45;;;;;;;;;;;;;;;;;;4951105;29;20507;-47
2023/10/30 09:16:11;;;;;;;;;;;;;;;;;;4951408;29;19938;-51
2023/10/30 09:18:38;;;;;;;;;;;;;;;;;;4959357;28;19973;-45
2023/10/30 09:21:04;;;;;;;;;;;;;;;;;;4951917;29;19918;-50
2023/10/30 09:23:30;;;;;;;;;;;;;;;;;;4951289;28;19914;-49
2023/10/30 09:25:56;;;;;;;;;;;;;;;;;;4951875;28;20399;-49
2023/10/30 09:28:22;;;;;;;;;;;;;;;;;;4951675;28;19986;-47
2023/10/30 09:30:47;;;;;;;;;;;;;;;;;;4952905;28;19922;-48
2023/10/30 09:33:13;;;;;;;;;;;;;;;;;;4965397;28;19917;-49
2023/10/30 09:35:42;;;;;;;;;;;;;;;;;;4953423;29;20292;-50
2023/10/30 09:38:08;;;;;;;;;;;;;;;;;;4953005;29;19914;-48
2023/10/30 09:40:34;;;;;;;;;;;;;;;;;;4951568;29;20038;-46
2023/10/30 09:43:01;;;;;;;;;;;;;;;;;;4951394;29;20308;-49
2023/10/30 09:45:27;;;;;;;;;;;;;;;;;;4949649;28;19929;-46
2023/10/30 09:47:53;;;;;;;;;;;;;;;;;;4951154;28;19910;-49
2023/10/30 09:50:19;;;;;;;;;;;;;;;;;;4952133;29;19918;-50
2023/10/30 09:52:45;;;;;;;;;;;;;;;;;;4952278;29;19934;-49
2023/10/30 09:55:11;;;;;;;;;;;;;;;;;;4951659;29;19965;-48
2023/10/30 09:57:37;;;;;;;;;;;;;;;;;;4952809;29;20009;-49
2023/10/30 10:00:05;;;;;;;;;;;;;;;;;;4952032;28;20455;-50
2023/10/30 10:02:31;;;;;;;;;;;;;;;;;;4951889;28;19934;-48
2023/10/30 10:04:57;;;;;;;;;;;;;;;;;;4951266;29;19974;-49
2023/10/30 10:07:23;;;;;;;;;;;;;;;;;;4951450;28;19954;-49
2023/10/30 10:09:49;;;;;;;;;;;;;;;;;;4951630;28;19937;-47
2023/10/30 10:12:15;;;;;;;;;;;;;;;;;;4953233;29;19917;-47
2023/10/30 10:14:41;;;;;;;;;;;;;;;;;;4952375;29;19911;-49
2023/10/30 10:17:08;;;;;;;;;;;;;;;;;;4952625;29;19923;-46
2023/10/30 10:19:35;;;;;;;;;;;;;;;;;;4952409;29;19911;-49
2023/10/30 10:22:01;;;;;;;;;;;;;;;;;;4951323;28;19919;-47
2023/10/30 10:24:27;;;;;;;;;;;;;;;;;;4949549;28;19926;-46
2023/10/30 10:26:53;;;;;;;;;;;;;;;;;;4952379;29;20295;-47
2023/10/30 10:29:19;;;;;;;;;;;;;;;;;;4950751;28;19914;-45
2023/10/30 10:31:45;;;;;;;;;;;;;;;;;;4951316;28;19918;-50
2023/10/30 10:34:11;;;;;;;;;;;;;;;;;;4951456;28;19915;-47
2023/10/30 10:36:37;;;;;;;;;;;;;;;;;;4951115;28;19949;-47
2023/10/30 10:39:03;;;;;;;;;;;;;;;;;;4951986;29;19987;-50
2023/10/30 10:41:29;;;;;;;;;;;;;;;;;;4950265;28;19914;-48
2023/10/30 10:43:56;;;;;;;;;;;;;;;;;;4949455;28;19961;-48
2023/10/30 10:46:22;;;;;;;;;;;;;;;;;;4950758;28;20388;-46
2023/10/30 10:48:48;;;;;;;;;;;;;;;;;;4950159;28;19973;-46
2023/10/30 10:51:14;;;;;;;;;;;;;;;;;;4948660;28;19941;-47
2023/10/30 10:53:39;;;;;;;;;;;;;;;;;;4950589;29;19914;-49
2023/10/30 10:56:05;;;;;;;;;;;;;;;;;;4947400;28;19919;-48
2023/10/30 10:58:31;;;;;;;;;;;;;;;;;;4950511;28;20335;-45
2023/10/30 11:00:57;;;;;;;;;;;;;;;;;;4950196;28;19922;-47
2023/10/30 11:03:23;;;;;;;;;;;;;;;;;;4950661;28;19919;-46
2023/10/30 11:05:49;;;;;;;;;;;;;;;;;;4950229;28;19914;-46
2023/10/30 11:08:15;;;;;;;;;;;;;;;;;;4951773;28;20379;-47
2023/10/30 11:10:41;;;;;;;;;;;;;;;;;;4950379;28;19922;-47
2023/10/30 11:13:08;;;;;;;;;;;;;;;;;;4950503;28;20482;-47
2023/10/30 11:15:34;;;;;;;;;;;;;;;;;;4954535;28;19937;-47
2023/10/30 11:18:00;;;;;;;;;;;;;;;;;;4950744;28;19925;-47
2023/10/30 11:20:26;;;;;;;;;;;;;;;;;;4950248;28;20001;-45
2023/10/30 11:22:52;;;;;;;;;;;;;;;;;;4951424;29;20001;-48
2023/10/30 11:25:18;;;;;;;;;;;;;;;;;;4951470;29;20037;-49
2023/10/30 11:27:44;;;;;;;;;;;;;;;;;;4951457;29;19958;-48
2023/10/30 11:30:11;;;;;;;;;;;;;;;;;;4951566;29;20372;-49
2023/10/30 11:32:37;;;;;;;;;;;;;;;;;;4951311;29;19918;-46
2023/10/30 11:35:03;;;;;;;;;;;;;;;;;;4950916;29;19910;-49
2023/10/30 11:37:31;;;;;;;;;;;;;;;;;;4951896;29;20061;-48
2023/10/30 11:39:58;;;;;;;;;;;;;;;;;;4951414;29;19918;-47
2023/10/30 11:42:31;;;;;;;;;;;;;;;;;;4951743;29;19914;-45
2023/10/30 11:44:57;;;;;;;;;;;;;;;;;;4949384;29;19919;-47
2023/10/30 11:47:23;;;;;;;;;;;;;;;;;;4959231;28;19921;-47
2023/10/30 11:49:49;;;;;;;;;;;;;;;;;;4965536;28;19910;-44
2023/10/30 11:52:15;;;;;;;;;;;;;;;;;;4974301;28;19910;-45
2023/10/30 11:54:41;;;;;;;;;;;;;;;;;;4964445;28;19921;-46
2023/10/30 11:57:07;;;;;;;;;;;;;;;;;;4954881;29;19914;-46
2023/10/30 11:59:33;;;;;;;;;;;;;;;;;;4954803;29;20279;-43
2023/10/30 12:02:01;;;;;;;;;;;;;;;;;;4954283;28;19926;-43
2023/10/30 12:04:26;;;;;;;;;;;;;;;;;;4954216;28;20126;-48
2023/10/30 12:06:52;;;;;;;;;;;;;;;;;;4952315;28;19914;-44
2023/10/30 12:09:18;;;;;;;;;;;;;;;;;;4952903;28;19922;-44
2023/10/30 12:11:44;;;;;;;;;;;;;;;;;;4951633;28;19914;-42
2023/10/30 12:14:10;;;;;;;;;;;;;;;;;;4954130;28;20004;-42
2023/10/30 12:16:36;;;;;;;;;;;;;;;;;;4936436;29;19914;-43
2023/10/30 12:19:02;;;;;;;;;;;;;;;;;;4954064;28;20391;-44
2023/10/30 12:21:28;;;;;;;;;;;;;;;;;;4953637;28;19914;-43
2023/10/30 12:23:57;;;;;;;;;;;;;;;;;;4952229;28;19918;-47
2023/10/30 12:26:23;;;;;;;;;;;;;;;;;;4950933;29;19911;-43
2023/10/30 12:28:49;;;;;;;;;;;;;;;;;;4953072;28;19915;-45
2023/10/30 12:31:15;;;;;;;;;;;;;;;;;;4954605;29;19918;-45
2023/10/30 12:33:41;;;;;;;;;;;;;;;;;;4954906;28;20387;-47
2023/10/30 12:36:06;;;;;;;;;;;;;;;;;;4954903;28;19918;-48
2023/10/30 12:38:32;;;;;;;;;;;;;;;;;;4953818;28;19919;-47
2023/10/30 12:41:00;;;;;;;;;;;;;;;;;;4954194;29;19910;-47
2023/10/30 12:43:26;;;;;;;;;;;;;;;;;;4967628;28;19914;-45
2023/10/30 12:45:52;;;;;;;;;;;;;;;;;;4952127;28;20010;-43
2023/10/30 12:48:18;;;;;;;;;;;;;;;;;;4951792;28;19914;-43
2023/10/30 12:50:44;;;;;;;;;;;;;;;;;;4957317;28;20311;-44
2023/10/30 12:53:10;;;;;;;;;;;;;;;;;;4959865;28;20000;-43
2023/10/30 12:55:36;;;;;;;;;;;;;;;;;;4953481;28;19915;-42
2023/10/30 12:58:02;;;;;;;;;;;;;;;;;;4958436;28;19941;-43
2023/10/30 13:00:27;;;;;;;;;;;;;;;;;;4951413;28;20355;-42
2023/10/30 13:02:53;;;;;;;;;;;;;;;;;;4951731;28;19918;-43
2023/10/30 13:05:19;;;;;;;;;;;;;;;;;;4955978;28;19910;-43
2023/10/30 13:07:45;;;;;;;;;;;;;;;;;;4953327;28;20008;-44
2023/10/30 13:10:11;;;;;;;;;;;;;;;;;;4951891;28;19911;-44
2023/10/30 13:12:37;;;;;;;;;;;;;;;;;;4953321;28;19918;-43
2023/10/30 13:15:04;;;;;;;;;;;;;;;;;;4953239;28;20411;-43
2023/10/30 13:17:30;;;;;;;;;;;;;;;;;;4950690;28;19919;-44
2023/10/30 13:19:56;;;;;;;;;;;;;;;;;;4951249;28;19910;-43
2023/10/30 13:22:23;;;;;;;;;;;;;;;;;;4957501;28;20430;-43
2023/10/30 13:24:49;;;;;;;;;;;;;;;;;;4952336;28;19910;-43
2023/10/30 13:27:15;;;;;;;;;;;;;;;;;;4953481;29;19922;-43
2023/10/30 13:29:41;;;;;;;;;;;;;;;;;;4952453;28;20027;-45
2023/10/30 13:32:07;;;;;;;;;;;;;;;;;;4953354;29;19922;-43
2023/10/30 13:34:32;;;;;;;;;;;;;;;;;;4952765;28;19910;-43
2023/10/30 13:36:58;;;;;;;;;;;;;;;;;;4952126;28;19914;-43
2023/10/30 13:39:24;;;;;;;;;;;;;;;;;;4957164;28;19918;-43
2023/10/30 13:41:50;;;;;;;;;;;;;;;;;;4952994;28;19961;-42
2023/10/30 13:44:17;;;;;;;;;;;;;;;;;;4952452;28;20458;-42
2023/10/30 13:46:43;;;;;;;;;;;;;;;;;;4951801;29;19989;-42
2023/10/30 13:49:08;;;;;;;;;;;;;;;;;;4951399;28;19919;-42
2023/10/30 13:51:35;;;;;;;;;;;;;;;;;;4951900;28;19914;-42
2023/10/30 13:54:00;;;;;;;;;;;;;;;;;;4951564;28;20399;-43
2023/10/30 13:56:27;;;;;;;;;;;;;;;;;;4950673;28;19926;-43
2023/10/30 13:58:53;;;;;;;;;;;;;;;;;;4949284;28;19925;-43
2023/10/30 14:01:18;;;;;;;;;;;;;;;;;;4951690;28;20307;-43
2023/10/30 14:03:44;;;;;;;;;;;;;;;;;;4952789;29;20005;-43
2023/10/30 14:06:10;;;;;;;;;;;;;;;;;;4950763;28;19918;-43
2023/10/30 14:08:36;;;;;;;;;;;;;;;;;;4951640;28;19915;-43
2023/10/30 14:11:02;;;;;;;;;;;;;;;;;;4951273;28;19918;-43
2023/10/30 14:13:28;;;;;;;;;;;;;;;;;;4952486;29;20374;-42
2023/10/30 14:15:54;;;;;;;;;;;;;;;;;;4951504;28;19989;-43
2023/10/30 14:18:20;;;;;;;;;;;;;;;;;;4950994;28;19926;-43
2023/10/30 14:20:46;;;;;;;;;;;;;;;;;;4951385;28;20359;-42
2023/10/30 14:23:11;;;;;;;;;;;;;;;;;;4949621;28;20368;-44
2023/10/30 14:25:37;;;;;;;;;;;;;;;;;;4952228;28;19918;-42
2023/10/30 14:28:03;;;;;;;;;;;;;;;;;;4951879;29;19917;-42
2023/10/30 14:30:29;;;;;;;;;;;;;;;;;;4950855;28;20276;-44
2023/10/30 14:32:55;;;;;;;;;;;;;;;;;;4951614;28;19914;-42
2023/10/30 14:35:21;;;;;;;;;;;;;;;;;;4951994;28;19914;-44
2023/10/30 14:37:47;;;;;;;;;;;;;;;;;;4950721;28;19946;-43
2023/10/30 14:40:13;;;;;;;;;;;;;;;;;;4951467;28;19910;-43
2023/10/30 14:42:39;;;;;;;;;;;;;;;;;;4951823;28;19918;-44
2023/10/30 14:45:05;;;;;;;;;;;;;;;;;;4952036;28;19914;-45
2023/10/30 14:47:31;;;;;;;;;;;;;;;;;;4940005;29;19922;-44
2023/10/30 14:49:57;;;;;;;;;;;;;;;;;;4947518;28;19965;-44
2023/10/30 14:52:23;;;;;;;;;;;;;;;;;;4949924;28;19915;-45
2023/10/30 14:54:49;;;;;;;;;;;;;;;;;;4952169;29;19911;-44
2023/10/30 14:57:15;;;;;;;;;;;;;;;;;;4949902;28;19969;-43
2023/10/30 14:59:41;;;;;;;;;;;;;;;;;;4950818;28;19914;-44
2023/10/30 15:02:08;;;;;;;;;;;;;;;;;;4950922;28;20021;-43
2023/10/30 15:04:34;;;;;;;;;;;;;;;;;;4951975;29;19915;-45
2023/10/30 15:06:59;;;;;;;;;;;;;;;;;;4954784;28;19922;-44
2023/10/30 15:09:25;;;;;;;;;;;;;;;;;;4950492;28;19921;-44
2023/10/30 15:11:52;;;;;;;;;;;;;;;;;;4950910;28;19921;-46
2023/10/30 15:14:18;;;;;;;;;;;;;;;;;;4950902;29;19914;-45
2023/10/30 15:16:44;;;;;;;;;;;;;;;;;;4950477;28;19946;-44
2023/10/30 15:19:10;;;;;;;;;;;;;;;;;;4950160;28;19925;-45
2023/10/30 15:21:36;;;;;;;;;;;;;;;;;;4947690;28;20001;-44
2023/10/30 15:24:02;;;;;;;;;;;;;;;;;;4940009;28;20005;-46
2023/10/30 15:26:28;;;;;;;;;;;;;;;;;;4950497;28;19921;-44
2023/10/30 15:28:54;;;;;;;;;;;;;;;;;;4949822;28;19915;-43
2023/10/30 15:31:22;;;;;;;;;;;;;;;;;;4951039;28;20319;-43
2023/10/30 15:33:48;;;;;;;;;;;;;;;;;;4950368;28;19915;-45
2023/10/30 15:36:14;;;;;;;;;;;;;;;;;;4951561;29;19911;-44
2023/10/30 15:38:40;;;;;;;;;;;;;;;;;;4950958;28;19915;-44
2023/10/30 15:41:06;;;;;;;;;;;;;;;;;;4950535;28;19918;-44
2023/10/30 15:43:32;;;;;;;;;;;;;;;;;;4950289;28;19910;-44
2023/10/30 15:45:58;;;;;;;;;;;;;;;;;;4949604;28;20347;-45
2023/10/30 15:48:24;;;;;;;;;;;;;;;;;;4950668;29;19911;-44
2023/10/30 15:50:50;;;;;;;;;;;;;;;;;;4949267;28;19937;-44
2023/10/30 15:53:15;;;;;;;;;;;;;;;;;;4950169;28;19922;-43
2023/10/30 15:55:41;;;;;;;;;;;;;;;;;;4948518;28;20029;-45
2023/10/30 15:58:10;;;;;;;;;;;;;;;;;;4944561;28;19965;-45
2023/10/30 16:00:36;;;;;;;;;;;;;;;;;;4947917;28;20371;-47
2023/10/30 16:03:01;;;;;;;;;;;;;;;;;;4946735;28;19922;-45
2023/10/30 16:05:27;;;;;;;;;;;;;;;;;;4945106;29;19911;-48
2023/10/30 16:07:54;;;;;;;;;;;;;;;;;;4950254;29;20311;-45
2023/10/30 16:10:20;;;;;;;;;;;;;;;;;;4947249;28;19914;-48
2023/10/30 16:12:46;;;;;;;;;;;;;;;;;;4950121;29;19910;-47
2023/10/30 16:15:13;;;;;;;;;;;;;;;;;;4949196;29;19961;-44
2023/10/30 16:17:38;;;;;;;;;;;;;;;;;;4949507;29;20382;-44
2023/10/30 16:20:07;;;;;;;;;;;;;;;;;;4948460;29;20235;-44
2023/10/30 16:22:38;;;;;;;;;;;;;;;;;;4949228;29;19915;-44
2023/10/30 16:25:04;;;;;;;;;;;;;;;;;;4950189;29;20387;-47
2023/10/30 16:27:30;;;;;;;;;;;;;;;;;;4950141;29;19914;-44
2023/10/30 16:29:56;;;;;;;;;;;;;;;;;;4948991;29;19914;-44
2023/10/30 16:32:22;;;;;;;;;;;;;;;;;;4944740;28;19983;-45
2023/10/30 16:34:48;;;;;;;;;;;;;;;;;;4957571;28;19922;-43
2023/10/30 16:37:14;;;;;;;;;;;;;;;;;;4952721;29;20450;-45
2023/10/30 16:39:40;;;;;;;;;;;;;;;;;;4956153;28;19917;-44
2023/10/30 16:42:06;;;;;;;;;;;;;;;;;;4972815;28;20447;-44
2023/10/30 16:44:31;;;;;;;;;;;;;;;;;;4972848;28;19910;-45
2023/10/30 16:46:57;;;;;;;;;;;;;;;;;;4951786;28;20009;-44
2023/10/30 16:49:23;;;;;;;;;;;;;;;;;;4953824;29;19914;-47
2023/10/30 16:51:50;;;;;;;;;;;;;;;;;;4953155;28;20090;-45
2023/10/30 16:54:15;;;;;;;;;;;;;;;;;;4953731;29;20457;-44
2023/10/30 16:56:41;;;;;;;;;;;;;;;;;;4954288;29;19910;-44
2023/10/30 16:59:07;;;;;;;;;;;;;;;;;;4935050;29;19934;-45
2023/10/30 17:01:33;;;;;;;;;;;;;;;;;;4949552;28;20032;-46
2023/10/30 17:03:59;;;;;;;;;;;;;;;;;;4953235;28;19914;-46
2023/10/30 17:06:26;;;;;;;;;;;;;;;;;;4952881;28;19918;-46
2023/10/30 17:08:52;;;;;;;;;;;;;;;;;;4954485;28;20009;-44
2023/10/30 17:11:18;;;;;;;;;;;;;;;;;;4949637;28;20001;-44
2023/10/30 17:13:44;;;;;;;;;;;;;;;;;;4951575;28;20025;-47
2023/10/30 17:16:10;;;;;;;;;;;;;;;;;;4949819;28;19985;-46
2023/10/30 17:18:36;;;;;;;;;;;;;;;;;;4952467;28;19926;-45
2023/10/30 17:21:05;;;;;;;;;;;;;;;;;;4950415;28;20410;-44
2023/10/30 17:23:31;;;;;;;;;;;;;;;;;;4948967;28;19914;-44
2023/10/30 17:25:57;;;;;;;;;;;;;;;;;;4949287;28;19919;-45
2023/10/30 17:28:24;;;;;;;;;;;;;;;;;;4946697;29;19918;-46
2023/10/30 17:30:49;;;;;;;;;;;;;;;;;;4968007;28;19919;-45
2023/10/30 17:33:15;;;;;;;;;;;;;;;;;;4953194;28;20306;-45
2023/10/30 17:35:41;;;;;;;;;;;;;;;;;;4950820;28;19914;-46
2023/10/30 17:38:07;;;;;;;;;;;;;;;;;;4946660;28;19922;-45
2023/10/30 17:40:33;;;;;;;;;;;;;;;;;;4951163;28;20380;-46
2023/10/30 17:42:59;;;;;;;;;;;;;;;;;;4953130;28;19953;-47
2023/10/30 17:45:25;;;;;;;;;;;;;;;;;;4951806;28;20359;-43
2023/10/30 17:47:51;;;;;;;;;;;;;;;;;;4951889;28;19917;-46
2023/10/30 17:50:17;;;;;;;;;;;;;;;;;;4953652;29;20406;-43
2023/10/30 17:52:43;;;;;;;;;;;;;;;;;;4952888;29;19910;-47
2023/10/30 17:55:09;;;;;;;;;;;;;;;;;;4951848;28;20246;-45
2023/10/30 17:57:34;;;;;;;;;;;;;;;;;;4956878;28;19989;-44
2023/10/30 18:00:00;;;;;;;;;;;;;;;;;;4971932;28;20322;-43
2023/10/30 18:02:26;;;;;;;;;;;;;;;;;;4971806;28;19918;-45
2023/10/30 18:04:52;;;;;;;;;;;;;;;;;;4948229;28;19993;-45
2023/10/30 18:07:18;;;;;;;;;;;;;;;;;;4950798;28;19915;-44
2023/10/30 18:09:45;;;;;;;;;;;;;;;;;;4950988;28;19936;-46
2023/10/30 18:12:13;;;;;;;;;;;;;;;;;;4959526;28;21530;-47
2023/10/30 18:14:38;;;;;;;;;;;;;;;;;;4952739;28;19917;-45
2023/10/30 18:17:05;;;;;;;;;;;;;;;;;;4949372;28;20458;-45
2023/10/30 18:19:30;;;;;;;;;;;;;;;;;;4949862;29;19915;-46
2023/10/30 18:21:56;;;;;;;;;;;;;;;;;;4960328;28;19953;-46
2023/10/30 18:24:22;;;;;;;;;;;;;;;;;;4961893;28;19910;-45
2023/10/30 18:26:53;;;;;;;;;;;;;;;;;;4949688;28;20306;-45
2023/10/30 18:29:19;;;;;;;;;;;;;;;;;;4956151;28;19918;-44
2023/10/30 18:31:45;;;;;;;;;;;;;;;;;;4959038;28;19914;-44
2023/10/30 18:34:11;;;;;;;;;;;;;;;;;;4951193;28;20372;-48
2023/10/30 18:36:37;;;;;;;;;;;;;;;;;;4947738;28;20294;-45
2023/10/30 18:39:04;;;;;;;;;;;;;;;;;;4949198;28;20012;-45
2023/10/30 18:41:30;;;;;;;;;;;;;;;;;;4948829;28;19961;-45
2023/10/30 18:43:55;;;;;;;;;;;;;;;;;;4948897;28;19953;-45
2023/10/30 18:46:23;;;;;;;;;;;;;;;;;;4949927;28;19917;-45
2023/10/30 18:48:49;;;;;;;;;;;;;;;;;;4950627;28;19961;-44
2023/10/30 18:51:15;;;;;;;;;;;;;;;;;;4947143;28;19953;-48
2023/10/30 18:53:41;;;;;;;;;;;;;;;;;;4946374;28;19915;-46
2023/10/30 18:56:07;;;;;;;;;;;;;;;;;;4945250;28;20280;-44
2023/10/30 18:58:34;;;;;;;;;;;;;;;;;;4957964;28;19925;-45
2023/10/30 19:01:00;;;;;;;;;;;;;;;;;;4948032;28;20490;-46
2023/10/30 19:03:26;;;;;;;;;;;;;;;;;;4944600;28;19915;-45
2023/10/30 19:05:52;;;;;;;;;;;;;;;;;;4948935;28;19915;-48
2023/10/30 19:08:18;;;;;;;;;;;;;;;;;;4930580;28;19925;-44
2023/10/30 19:10:44;;;;;;;;;;;;;;;;;;4947309;28;20012;-48
2023/10/30 19:13:10;;;;;;;;;;;;;;;;;;4945858;28;21879;-44
2023/10/30 19:15:35;;;;;;;;;;;;;;;;;;4948750;28;19914;-48
2023/10/30 19:18:01;;;;;;;;;;;;;;;;;;4945790;28;20009;-48
2023/10/30 19:20:27;;;;;;;;;;;;;;;;;;4944569;28;19965;-47
2023/10/30 19:22:54;;;;;;;;;;;;;;;;;;4948049;28;19922;-44
2023/10/30 19:25:20;;;;;;;;;;;;;;;;;;4944637;28;19923;-44
2023/10/30 19:27:46;;;;;;;;;;;;;;;;;;4948163;28;20298;-47
2023/10/30 19:30:12;;;;;;;;;;;;;;;;;;4946447;28;19951;-47
2023/10/30 19:32:38;;;;;;;;;;;;;;;;;;4930636;28;19911;-45
2023/10/30 19:35:04;;;;;;;;;;;;;;;;;;4946580;28;19915;-46
2023/10/30 19:37:30;;;;;;;;;;;;;;;;;;4947084;28;19922;-46
2023/10/30 19:39:56;;;;;;;;;;;;;;;;;;4946356;28;19915;-49
2023/10/30 19:42:22;;;;;;;;;;;;;;;;;;4944678;28;19914;-45
2023/10/30 19:44:48;;;;;;;;;;;;;;;;;;4945616;28;20371;-46
2023/10/30 19:47:15;;;;;;;;;;;;;;;;;;4946704;28;19973;-45
2023/10/30 19:49:41;;;;;;;;;;;;;;;;;;4948544;28;19948;-47
2023/10/30 19:52:07;;;;;;;;;;;;;;;;;;4946251;28;19945;-44
2023/10/30 19:54:33;;;;;;;;;;;;;;;;;;4948584;28;19993;-46
2023/10/30 19:56:59;;;;;;;;;;;;;;;;;;4944914;28;19953;-45
2023/10/30 19:59:24;;;;;;;;;;;;;;;;;;4944658;28;19918;-45
2023/10/30 20:01:50;;;;;;;;;;;;;;;;;;4948597;28;19926;-44
2023/10/30 20:04:16;;;;;;;;;;;;;;;;;;4949145;28;19910;-45
2023/10/30 20:06:42;;;;;;;;;;;;;;;;;;4948927;28;19919;-44
2023/10/30 20:09:08;;;;;;;;;;;;;;;;;;4947037;28;20295;-45
2023/10/30 20:11:35;;;;;;;;;;;;;;;;;;4934168;29;19921;-44
2023/10/30 20:14:01;;;;;;;;;;;;;;;;;;4950450;28;19922;-46
2023/10/30 20:16:27;;;;;;;;;;;;;;;;;;4949676;28;19929;-47
2023/10/30 20:18:53;;;;;;;;;;;;;;;;;;4948192;28;19945;-45
2023/10/30 20:21:19;;;;;;;;;;;;;;;;;;4960547;28;19957;-45
2023/10/30 20:23:45;;;;;;;;;;;;;;;;;;4935945;29;19921;-45
2023/10/30 20:26:11;;;;;;;;;;;;;;;;;;4948509;28;19953;-46
2023/10/30 20:28:36;;;;;;;;;;;;;;;;;;4931044;28;19926;-45
2023/10/30 20:31:02;;;;;;;;;;;;;;;;;;4947912;28;19918;-44
2023/10/30 20:33:29;;;;;;;;;;;;;;;;;;4946666;28;19937;-45
2023/10/30 20:35:54;;;;;;;;;;;;;;;;;;4948362;28;19921;-46
2023/10/30 20:38:20;;;;;;;;;;;;;;;;;;4947480;28;20013;-46
2023/10/30 20:40:46;;;;;;;;;;;;;;;;;;4949689;28;19968;-44
2023/10/30 20:43:12;;;;;;;;;;;;;;;;;;4948295;28;19988;-46
2023/10/30 20:45:38;;;;;;;;;;;;;;;;;;4963606;28;19918;-46
2023/10/30 20:48:05;;;;;;;;;;;;;;;;;;4953416;28;19937;-44
2023/10/30 20:50:31;;;;;;;;;;;;;;;;;;4948795;28;19914;-47
2023/10/30 20:52:56;;;;;;;;;;;;;;;;;;4947678;28;19965;-46
2023/10/30 20:55:22;;;;;;;;;;;;;;;;;;4948929;28;19914;-48
2023/10/30 20:57:48;;;;;;;;;;;;;;;;;;4949232;28;19930;-49
2023/10/30 21:00:15;;;;;;;;;;;;;;;;;;4948038;28;20082;-45
2023/10/30 21:02:41;;;;;;;;;;;;;;;;;;4946839;28;19918;-49
2023/10/30 21:05:07;;;;;;;;;;;;;;;;;;4947374;28;19925;-47
2023/10/30 21:07:34;;;;;;;;;;;;;;;;;;4947434;28;20008;-48
2023/10/30 21:10:00;;;;;;;;;;;;;;;;;;4948752;28;19957;-47
2023/10/30 21:12:26;;;;;;;;;;;;;;;;;;4932003;28;20410;-45
2023/10/30 21:14:52;;;;;;;;;;;;;;;;;;4947931;28;19914;-45
2023/10/30 21:17:18;;;;;;;;;;;;;;;;;;4945864;28;20398;-46
2023/10/30 21:19:44;;;;;;;;;;;;;;;;;;4945483;28;19922;-48
2023/10/30 21:22:10;;;;;;;;;;;;;;;;;;4928733;28;19929;-45
2023/10/30 21:24:35;;;;;;;;;;;;;;;;;;4951945;28;19960;-45
2023/10/30 21:27:01;;;;;;;;;;;;;;;;;;4950894;28;19915;-45
2023/10/30 21:29:27;;;;;;;;;;;;;;;;;;4929744;29;19923;-48
2023/10/30 21:31:56;;;;;;;;;;;;;;;;;;4930824;28;19915;-46
2023/10/30 21:34:22;;;;;;;;;;;;;;;;;;4946997;28;19914;-45
2023/10/30 21:36:48;;;;;;;;;;;;;;;;;;4949236;28;19921;-46
2023/10/30 21:39:13;;;;;;;;;;;;;;;;;;4951631;28;20380;-47
2023/10/30 21:41:39;;;;;;;;;;;;;;;;;;4946224;28;19919;-45
2023/10/30 21:44:05;;;;;;;;;;;;;;;;;;4948166;28;20478;-47
2023/10/30 21:46:31;;;;;;;;;;;;;;;;;;4947349;28;19915;-45
2023/10/30 21:48:57;;;;;;;;;;;;;;;;;;4947137;28;19919;-47
2023/10/30 21:51:23;;;;;;;;;;;;;;;;;;4948937;28;19914;-46
2023/10/30 21:53:49;;;;;;;;;;;;;;;;;;4930072;29;19915;-45
2023/10/30 21:56:15;;;;;;;;;;;;;;;;;;4963733;28;19965;-45
2023/10/30 21:58:40;;;;;;;;;;;;;;;;;;4947549;28;19964;-44
2023/10/30 22:01:06;;;;;;;;;;;;;;;;;;4947105;28;20477;-45
2023/10/30 22:03:32;;;;;;;;;;;;;;;;;;4946068;28;19919;-45
2023/10/30 22:05:58;;;;;;;;;;;;;;;;;;4947373;28;19915;-46
2023/10/30 22:08:24;;;;;;;;;;;;;;;;;;4944329;28;19915;-47
2023/10/30 22:10:50;;;;;;;;;;;;;;;;;;4946984;28;19914;-46
2023/10/30 22:13:16;;;;;;;;;;;;;;;;;;4949344;28;20387;-47
2023/10/30 22:15:42;;;;;;;;;;;;;;;;;;4946901;28;20350;-45
2023/10/30 22:18:08;;;;;;;;;;;;;;;;;;4946917;28;19942;-47
2023/10/30 22:20:34;;;;;;;;;;;;;;;;;;4947366;28;19915;-45
2023/10/30 22:23:00;;;;;;;;;;;;;;;;;;4944958;28;20419;-45
2023/10/30 22:25:26;;;;;;;;;;;;;;;;;;4947460;28;19965;-45
2023/10/30 22:27:52;;;;;;;;;;;;;;;;;;4947575;28;20445;-45
2023/10/30 22:30:18;;;;;;;;;;;;;;;;;;4931267;29;19926;-45
2023/10/30 22:32:44;;;;;;;;;;;;;;;;;;4948374;28;19914;-47
2023/10/30 22:35:09;;;;;;;;;;;;;;;;;;4945688;28;20081;-48
2023/10/30 22:37:35;;;;;;;;;;;;;;;;;;4946559;28;20498;-46